Aérodrome :
LOGIN :

S'inscrire | Disclaimer

   EN    FR    IT 

 










Légende :    VFR   VFR Marginal   IFR   IFR Intensif   IFR Très Intensif
Visi : 
Plafond : 
>= 8 km
>= 3000ft
5 à 8 km
1000 à 3000 ft
1500m à 5 km
500 à 1000 ft
800 à 1500m
200 à 500 ft
< 800m
< 200 ft
Symboles :   Orages  Brouillard  Fortes neiges  Fortes précipitations  Vent > 20 kt
SIGMETs :   Divers  Orages  Givrage  Turbulence  Onde Orograph.  Cendres Volcan.






- Altitude de l'aérodrome : 397 ft
- Code IATA : IAS


LRIA - Iasi

DERNIER METAR :
  • 251200Z 17006KT 130V190 CAVOK 14/M08 Q1008

METARs EXPIRÉS :
  • 251130Z 18005KT 140V230 CAVOK 13/M07 Q1008
  • 251100Z 20006KT 170V230 CAVOK 12/M07 Q1009
  • 251030Z 19007KT CAVOK 11/M07 Q1009
  • 251000Z 16005KT 130V190 CAVOK 10/M05 Q1010
  • 250930Z 12006KT CAVOK 08/M03 Q1010

TAF TAF LRIA
Valide du 25 à 12h jusqu'au 25 à 21h UTC


251100Z 2512/2521 19007KT CAVOK



MET'MAP, la Météo Aéronautique d'un coup d'oeil ! - Copyright ORBIFLY Décembre 2007 - Disclaimer

ORBIFLY MET'MAP TEAM :

Programmation & Développement : Alexandra Zaïnal
Sur une idée originale de : Baudouin d'Aumeries
Assistance à la programmation : Marc-Olivier Méhu
Soutien technique & logistique : Manuel Goepfert

Contact : metmap@orbifly.com




SOURCES & CREDITS :

   NOAA